sensor_id;sensor_type;location;lat;lon;timestamp;temperature;humidity
33903;DHT22;20194;50.950;5.346;2024-01-30T00:01:55;10.80;77.80
33903;DHT22;20194;50.950;5.346;2024-01-30T00:04:21;10.80;76.40
33903;DHT22;20194;50.950;5.346;2024-01-30T00:06:46;10.60;78.60
33903;DHT22;20194;50.950;5.346;2024-01-30T00:09:12;10.50;80.60
33903;DHT22;20194;50.950;5.346;2024-01-30T00:11:38;10.60;81.80
33903;DHT22;20194;50.950;5.346;2024-01-30T00:14:04;10.50;81.50
33903;DHT22;20194;50.950;5.346;2024-01-30T00:16:30;10.60;80.30
33903;DHT22;20194;50.950;5.346;2024-01-30T00:18:56;10.40;81.60
33903;DHT22;20194;50.950;5.346;2024-01-30T00:21:22;10.50;82.30
33903;DHT22;20194;50.950;5.346;2024-01-30T00:23:49;10.50;82.20
33903;DHT22;20194;50.950;5.346;2024-01-30T00:26:15;10.40;82.10
33903;DHT22;20194;50.950;5.346;2024-01-30T00:28:41;10.50;83.70
33903;DHT22;20194;50.950;5.346;2024-01-30T00:31:08;10.50;81.40
33903;DHT22;20194;50.950;5.346;2024-01-30T00:33:38;10.30;84.30
33903;DHT22;20194;50.950;5.346;2024-01-30T00:36:05;10.30;83.40
33903;DHT22;20194;50.950;5.346;2024-01-30T00:38:32;10.30;83.50
33903;DHT22;20194;50.950;5.346;2024-01-30T00:40:57;10.20;85.70
33903;DHT22;20194;50.950;5.346;2024-01-30T00:43:23;10.20;86.30
33903;DHT22;20194;50.950;5.346;2024-01-30T00:45:50;10.00;88.60
33903;DHT22;20194;50.950;5.346;2024-01-30T00:48:18;10.00;88.40
33903;DHT22;20194;50.950;5.346;2024-01-30T00:50:43;10.10;88.00
33903;DHT22;20194;50.950;5.346;2024-01-30T00:53:09;10.20;87.70
33903;DHT22;20194;50.950;5.346;2024-01-30T00:55:35;10.10;88.00
33903;DHT22;20194;50.950;5.346;2024-01-30T00:58:01;10.00;87.80
33903;DHT22;20194;50.950;5.346;2024-01-30T01:00:27;10.20;87.80
33903;DHT22;20194;50.950;5.346;2024-01-30T01:02:57;10.00;88.00
33903;DHT22;20194;50.950;5.346;2024-01-30T01:05:22;9.90;90.00
33903;DHT22;20194;50.950;5.346;2024-01-30T01:07:49;9.90;90.50
33903;DHT22;20194;50.950;5.346;2024-01-30T01:10:15;10.00;90.40
33903;DHT22;20194;50.950;5.346;2024-01-30T01:12:41;10.00;89.20
33903;DHT22;20194;50.950;5.346;2024-01-30T01:15:08;10.00;90.40
33903;DHT22;20194;50.950;5.346;2024-01-30T01:17:39;10.00;89.10
33903;DHT22;20194;50.950;5.346;2024-01-30T01:20:06;10.00;90.50
33903;DHT22;20194;50.950;5.346;2024-01-30T01:22:33;10.00;90.50
33903;DHT22;20194;50.950;5.346;2024-01-30T01:24:59;10.10;89.90
33903;DHT22;20194;50.950;5.346;2024-01-30T01:27:25;10.00;88.80
33903;DHT22;20194;50.950;5.346;2024-01-30T01:29:51;9.90;90.30
33903;DHT22;20194;50.950;5.346;2024-01-30T01:32:17;9.90;90.50
33903;DHT22;20194;50.950;5.346;2024-01-30T01:34:44;9.90;90.80
33903;DHT22;20194;50.950;5.346;2024-01-30T01:37:10;10.00;90.10
33903;DHT22;20194;50.950;5.346;2024-01-30T01:39:36;10.10;89.00
33903;DHT22;20194;50.950;5.346;2024-01-30T01:42:02;10.00;89.90
33903;DHT22;20194;50.950;5.346;2024-01-30T01:44:28;10.20;89.00
33903;DHT22;20194;50.950;5.346;2024-01-30T01:46:54;10.20;87.30
33903;DHT22;20194;50.950;5.346;2024-01-30T01:49:22;10.20;88.20
33903;DHT22;20194;50.950;5.346;2024-01-30T01:51:48;10.20;87.50
33903;DHT22;20194;50.950;5.346;2024-01-30T01:54:14;10.10;88.40
33903;DHT22;20194;50.950;5.346;2024-01-30T01:56:42;10.10;88.70
33903;DHT22;20194;50.950;5.346;2024-01-30T01:59:08;10.10;86.50
33903;DHT22;20194;50.950;5.346;2024-01-30T02:01:36;10.20;87.30
33903;DHT22;20194;50.950;5.346;2024-01-30T02:04:02;10.30;86.80
33903;DHT22;20194;50.950;5.346;2024-01-30T02:06:28;10.20;88.00
33903;DHT22;20194;50.950;5.346;2024-01-30T02:08:54;10.10;87.10
33903;DHT22;20194;50.950;5.346;2024-01-30T02:11:22;10.00;88.70
33903;DHT22;20194;50.950;5.346;2024-01-30T02:13:48;10.00;89.70
33903;DHT22;20194;50.950;5.346;2024-01-30T02:16:14;9.70;91.70
33903;DHT22;20194;50.950;5.346;2024-01-30T02:18:40;9.70;92.00
33903;DHT22;20194;50.950;5.346;2024-01-30T02:21:10;9.70;92.10
33903;DHT22;20194;50.950;5.346;2024-01-30T02:23:36;9.80;91.70
33903;DHT22;20194;50.950;5.346;2024-01-30T02:26:03;9.80;92.40
33903;DHT22;20194;50.950;5.346;2024-01-30T02:28:29;9.90;92.30
33903;DHT22;20194;50.950;5.346;2024-01-30T02:30:54;10.00;91.10
33903;DHT22;20194;50.950;5.346;2024-01-30T02:33:20;9.90;91.60
33903;DHT22;20194;50.950;5.346;2024-01-30T02:35:47;9.90;92.60
33903;DHT22;20194;50.950;5.346;2024-01-30T02:38:13;10.00;92.50
33903;DHT22;20194;50.950;5.346;2024-01-30T02:40:39;10.10;92.00
33903;DHT22;20194;50.950;5.346;2024-01-30T02:43:05;10.20;91.60
33903;DHT22;20194;50.950;5.346;2024-01-30T02:45:30;10.20;91.60
33903;DHT22;20194;50.950;5.346;2024-01-30T02:47:56;10.30;91.40
33903;DHT22;20194;50.950;5.346;2024-01-30T02:50:21;10.20;91.20
33903;DHT22;20194;50.950;5.346;2024-01-30T02:52:47;10.20;91.80
33903;DHT22;20194;50.950;5.346;2024-01-30T02:55:13;10.20;92.00
33903;DHT22;20194;50.950;5.346;2024-01-30T02:57:39;10.20;92.00
33903;DHT22;20194;50.950;5.346;2024-01-30T03:00:05;10.30;92.00
33903;DHT22;20194;50.950;5.346;2024-01-30T03:02:34;10.40;91.50
33903;DHT22;20194;50.950;5.346;2024-01-30T03:05:00;10.40;91.10
33903;DHT22;20194;50.950;5.346;2024-01-30T03:07:26;10.50;91.00
33903;DHT22;20194;50.950;5.346;2024-01-30T03:09:51;10.60;91.20
33903;DHT22;20194;50.950;5.346;2024-01-30T03:12:17;10.50;90.60
33903;DHT22;20194;50.950;5.346;2024-01-30T03:14:43;10.50;90.70
33903;DHT22;20194;50.950;5.346;2024-01-30T03:17:09;10.60;91.10
33903;DHT22;20194;50.950;5.346;2024-01-30T03:19:35;10.60;91.00
33903;DHT22;20194;50.950;5.346;2024-01-30T03:22:00;10.60;91.00
33903;DHT22;20194;50.950;5.346;2024-01-30T03:24:26;10.40;90.60
33903;DHT22;20194;50.950;5.346;2024-01-30T03:26:52;10.40;91.30
33903;DHT22;20194;50.950;5.346;2024-01-30T03:29:18;10.40;92.00
33903;DHT22;20194;50.950;5.346;2024-01-30T03:31:44;10.40;91.50
33903;DHT22;20194;50.950;5.346;2024-01-30T03:34:09;10.40;92.00
33903;DHT22;20194;50.950;5.346;2024-01-30T03:36:35;10.40;91.40
33903;DHT22;20194;50.950;5.346;2024-01-30T03:39:02;10.50;91.50
33903;DHT22;20194;50.950;5.346;2024-01-30T03:41:27;10.60;90.40
33903;DHT22;20194;50.950;5.346;2024-01-30T03:43:53;10.70;90.00
33903;DHT22;20194;50.950;5.346;2024-01-30T03:46:19;10.60;89.70
33903;DHT22;20194;50.950;5.346;2024-01-30T03:48:45;10.80;89.00
33903;DHT22;20194;50.950;5.346;2024-01-30T03:51:11;10.80;87.10
33903;DHT22;20194;50.950;5.346;2024-01-30T03:53:44;10.80;86.30
33903;DHT22;20194;50.950;5.346;2024-01-30T03:56:11;10.80;84.90
33903;DHT22;20194;50.950;5.346;2024-01-30T03:58:39;10.80;87.50
33903;DHT22;20194;50.950;5.346;2024-01-30T04:01:05;10.80;86.70
33903;DHT22;20194;50.950;5.346;2024-01-30T04:03:30;10.70;86.60
33903;DHT22;20194;50.950;5.346;2024-01-30T04:05:56;10.70;89.70
33903;DHT22;20194;50.950;5.346;2024-01-30T04:08:21;10.80;89.10
33903;DHT22;20194;50.950;5.346;2024-01-30T04:10:47;10.70;84.70
33903;DHT22;20194;50.950;5.346;2024-01-30T04:13:13;10.80;89.00
33903;DHT22;20194;50.950;5.346;2024-01-30T04:15:39;10.70;87.70
33903;DHT22;20194;50.950;5.346;2024-01-30T04:18:05;10.50;90.00
33903;DHT22;20194;50.950;5.346;2024-01-30T04:20:31;10.30;91.70
33903;DHT22;20194;50.950;5.346;2024-01-30T04:22:57;10.30;93.10
33903;DHT22;20194;50.950;5.346;2024-01-30T04:25:22;10.30;93.30
33903;DHT22;20194;50.950;5.346;2024-01-30T04:27:48;10.30;92.60
33903;DHT22;20194;50.950;5.346;2024-01-30T04:30:14;10.30;92.90
33903;DHT22;20194;50.950;5.346;2024-01-30T04:32:40;10.30;92.80
33903;DHT22;20194;50.950;5.346;2024-01-30T04:35:06;10.40;93.30
33903;DHT22;20194;50.950;5.346;2024-01-30T04:37:32;10.60;93.00
33903;DHT22;20194;50.950;5.346;2024-01-30T04:39:58;10.50;92.10
33903;DHT22;20194;50.950;5.346;2024-01-30T04:42:23;10.40;92.90
33903;DHT22;20194;50.950;5.346;2024-01-30T04:44:49;10.40;92.60
33903;DHT22;20194;50.950;5.346;2024-01-30T04:47:15;10.50;92.70
33903;DHT22;20194;50.950;5.346;2024-01-30T04:49:41;10.40;92.30
33903;DHT22;20194;50.950;5.346;2024-01-30T04:52:07;10.40;92.50
33903;DHT22;20194;50.950;5.346;2024-01-30T04:54:34;10.20;93.90
33903;DHT22;20194;50.950;5.346;2024-01-30T04:57:00;10.10;94.60
33903;DHT22;20194;50.950;5.346;2024-01-30T04:59:26;10.10;94.60
33903;DHT22;20194;50.950;5.346;2024-01-30T05:01:52;10.20;95.30
33903;DHT22;20194;50.950;5.346;2024-01-30T05:04:17;10.20;95.10
33903;DHT22;20194;50.950;5.346;2024-01-30T05:06:43;10.20;94.90
33903;DHT22;20194;50.950;5.346;2024-01-30T05:09:09;10.10;95.30
33903;DHT22;20194;50.950;5.346;2024-01-30T05:11:40;10.10;95.50
33903;DHT22;20194;50.950;5.346;2024-01-30T05:14:06;10.10;95.20
33903;DHT22;20194;50.950;5.346;2024-01-30T05:16:32;10.20;94.90
33903;DHT22;20194;50.950;5.346;2024-01-30T05:18:58;10.20;95.10
33903;DHT22;20194;50.950;5.346;2024-01-30T05:21:24;10.20;95.00
33903;DHT22;20194;50.950;5.346;2024-01-30T05:23:50;10.30;94.90
33903;DHT22;20194;50.950;5.346;2024-01-30T05:26:16;10.20;95.10
33903;DHT22;20194;50.950;5.346;2024-01-30T05:28:42;10.20;94.80
33903;DHT22;20194;50.950;5.346;2024-01-30T05:31:10;10.40;94.50
33903;DHT22;20194;50.950;5.346;2024-01-30T05:33:35;10.30;94.50
33903;DHT22;20194;50.950;5.346;2024-01-30T05:36:02;10.20;95.10
33903;DHT22;20194;50.950;5.346;2024-01-30T05:38:31;10.20;95.60
33903;DHT22;20194;50.950;5.346;2024-01-30T05:40:57;10.20;94.90
33903;DHT22;20194;50.950;5.346;2024-01-30T05:43:24;10.20;94.90
33903;DHT22;20194;50.950;5.346;2024-01-30T05:45:49;10.20;95.60
33903;DHT22;20194;50.950;5.346;2024-01-30T05:48:15;10.20;95.40
33903;DHT22;20194;50.950;5.346;2024-01-30T05:50:41;10.10;95.70
33903;DHT22;20194;50.950;5.346;2024-01-30T05:53:07;10.10;95.90
33903;DHT22;20194;50.950;5.346;2024-01-30T05:55:32;10.10;96.00
33903;DHT22;20194;50.950;5.346;2024-01-30T05:57:58;10.10;95.80
33903;DHT22;20194;50.950;5.346;2024-01-30T06:00:24;10.20;95.60
33903;DHT22;20194;50.950;5.346;2024-01-30T06:02:49;10.20;95.80
33903;DHT22;20194;50.950;5.346;2024-01-30T06:05:15;10.20;95.60
33903;DHT22;20194;50.950;5.346;2024-01-30T06:07:40;10.20;95.50
33903;DHT22;20194;50.950;5.346;2024-01-30T06:10:07;10.30;95.90
33903;DHT22;20194;50.950;5.346;2024-01-30T06:12:37;10.30;95.60
33903;DHT22;20194;50.950;5.346;2024-01-30T06:15:03;10.30;95.80
33903;DHT22;20194;50.950;5.346;2024-01-30T06:17:29;10.40;95.20
33903;DHT22;20194;50.950;5.346;2024-01-30T06:19:55;10.40;95.20
33903;DHT22;20194;50.950;5.346;2024-01-30T06:22:21;10.60;94.90
33903;DHT22;20194;50.950;5.346;2024-01-30T06:24:46;10.60;94.40
33903;DHT22;20194;50.950;5.346;2024-01-30T06:27:14;10.60;94.60
33903;DHT22;20194;50.950;5.346;2024-01-30T06:29:40;10.70;94.20
33903;DHT22;20194;50.950;5.346;2024-01-30T06:32:07;10.70;94.10
33903;DHT22;20194;50.950;5.346;2024-01-30T06:34:33;10.70;94.40
33903;DHT22;20194;50.950;5.346;2024-01-30T06:36:59;10.60;94.20
33903;DHT22;20194;50.950;5.346;2024-01-30T06:39:25;10.60;94.60
33903;DHT22;20194;50.950;5.346;2024-01-30T06:41:51;10.60;93.80
33903;DHT22;20194;50.950;5.346;2024-01-30T06:44:17;10.50;94.60
33903;DHT22;20194;50.950;5.346;2024-01-30T06:46:42;10.50;95.10
33903;DHT22;20194;50.950;5.346;2024-01-30T06:49:08;10.50;95.20
33903;DHT22;20194;50.950;5.346;2024-01-30T06:51:34;10.60;95.10
33903;DHT22;20194;50.950;5.346;2024-01-30T06:53:59;10.50;95.00
33903;DHT22;20194;50.950;5.346;2024-01-30T06:56:26;10.40;95.70
33903;DHT22;20194;50.950;5.346;2024-01-30T06:58:51;10.40;95.40
33903;DHT22;20194;50.950;5.346;2024-01-30T07:01:17;10.40;95.50
33903;DHT22;20194;50.950;5.346;2024-01-30T07:03:43;10.50;95.80
33903;DHT22;20194;50.950;5.346;2024-01-30T07:06:09;10.50;95.40
33903;DHT22;20194;50.950;5.346;2024-01-30T07:08:38;10.50;95.10
33903;DHT22;20194;50.950;5.346;2024-01-30T07:11:07;10.60;94.90
33903;DHT22;20194;50.950;5.346;2024-01-30T07:13:34;10.60;95.10
33903;DHT22;20194;50.950;5.346;2024-01-30T07:16:00;10.70;94.80
33903;DHT22;20194;50.950;5.346;2024-01-30T07:18:25;10.90;94.70
33903;DHT22;20194;50.950;5.346;2024-01-30T07:20:51;10.90;93.90
33903;DHT22;20194;50.950;5.346;2024-01-30T07:23:17;10.70;93.80
33903;DHT22;20194;50.950;5.346;2024-01-30T07:25:46;10.70;95.10
33903;DHT22;20194;50.950;5.346;2024-01-30T07:28:15;10.60;95.30
33903;DHT22;20194;50.950;5.346;2024-01-30T07:30:43;10.60;95.60
33903;DHT22;20194;50.950;5.346;2024-01-30T07:33:09;10.80;95.60
33903;DHT22;20194;50.950;5.346;2024-01-30T07:35:36;10.70;95.10
33903;DHT22;20194;50.950;5.346;2024-01-30T07:38:01;10.70;95.00
33903;DHT22;20194;50.950;5.346;2024-01-30T07:40:27;10.70;95.00
33903;DHT22;20194;50.950;5.346;2024-01-30T07:42:54;10.60;95.70
33903;DHT22;20194;50.950;5.346;2024-01-30T07:45:20;10.60;95.70
33903;DHT22;20194;50.950;5.346;2024-01-30T07:47:50;10.60;95.90
33903;DHT22;20194;50.950;5.346;2024-01-30T07:50:16;10.70;95.50
33903;DHT22;20194;50.950;5.346;2024-01-30T07:52:42;10.70;95.70
33903;DHT22;20194;50.950;5.346;2024-01-30T07:55:08;10.70;95.60
33903;DHT22;20194;50.950;5.346;2024-01-30T07:57:34;10.80;95.70
33903;DHT22;20194;50.950;5.346;2024-01-30T08:00:02;10.80;95.70
33903;DHT22;20194;50.950;5.346;2024-01-30T08:02:28;10.80;95.80
33903;DHT22;20194;50.950;5.346;2024-01-30T08:04:54;10.80;95.50
33903;DHT22;20194;50.950;5.346;2024-01-30T08:07:20;10.90;95.70
33903;DHT22;20194;50.950;5.346;2024-01-30T08:09:47;10.90;95.50
33903;DHT22;20194;50.950;5.346;2024-01-30T08:12:13;10.90;95.20
33903;DHT22;20194;50.950;5.346;2024-01-30T08:14:39;10.90;95.60
33903;DHT22;20194;50.950;5.346;2024-01-30T08:17:06;10.80;96.30
33903;DHT22;20194;50.950;5.346;2024-01-30T08:19:33;10.80;96.20
33903;DHT22;20194;50.950;5.346;2024-01-30T08:21:59;10.90;96.20
33903;DHT22;20194;50.950;5.346;2024-01-30T08:24:24;10.90;95.90
33903;DHT22;20194;50.950;5.346;2024-01-30T08:26:50;11.00;96.00
33903;DHT22;20194;50.950;5.346;2024-01-30T08:29:16;11.00;95.70
33903;DHT22;20194;50.950;5.346;2024-01-30T08:31:41;11.00;95.90
33903;DHT22;20194;50.950;5.346;2024-01-30T08:34:07;11.00;95.80
33903;DHT22;20194;50.950;5.346;2024-01-30T08:36:33;11.00;95.50
33903;DHT22;20194;50.950;5.346;2024-01-30T08:38:58;11.00;95.80
33903;DHT22;20194;50.950;5.346;2024-01-30T08:41:24;10.90;96.00
33903;DHT22;20194;50.950;5.346;2024-01-30T08:43:50;10.90;96.30
33903;DHT22;20194;50.950;5.346;2024-01-30T08:46:19;10.90;96.20
33903;DHT22;20194;50.950;5.346;2024-01-30T08:48:46;11.00;96.30
33903;DHT22;20194;50.950;5.346;2024-01-30T08:51:12;10.90;96.10
33903;DHT22;20194;50.950;5.346;2024-01-30T08:53:39;10.90;96.40
33903;DHT22;20194;50.950;5.346;2024-01-30T08:56:06;11.00;96.20
33903;DHT22;20194;50.950;5.346;2024-01-30T08:58:32;11.00;96.20
33903;DHT22;20194;50.950;5.346;2024-01-30T09:00:58;11.00;96.00
33903;DHT22;20194;50.950;5.346;2024-01-30T09:03:24;11.00;96.10
33903;DHT22;20194;50.950;5.346;2024-01-30T09:05:50;11.10;96.00
33903;DHT22;20194;50.950;5.346;2024-01-30T09:08:15;11.10;96.20
33903;DHT22;20194;50.950;5.346;2024-01-30T09:10:41;11.10;96.00
33903;DHT22;20194;50.950;5.346;2024-01-30T09:13:07;11.20;96.00
33903;DHT22;20194;50.950;5.346;2024-01-30T09:15:33;11.20;95.70
33903;DHT22;20194;50.950;5.346;2024-01-30T09:17:58;11.20;96.00
33903;DHT22;20194;50.950;5.346;2024-01-30T09:20:24;11.20;95.80
33903;DHT22;20194;50.950;5.346;2024-01-30T09:22:50;11.20;95.90
33903;DHT22;20194;50.950;5.346;2024-01-30T09:25:15;11.30;96.10
33903;DHT22;20194;50.950;5.346;2024-01-30T09:27:41;11.30;95.70
33903;DHT22;20194;50.950;5.346;2024-01-30T09:30:07;11.30;95.60
33903;DHT22;20194;50.950;5.346;2024-01-30T09:32:33;11.20;95.80
33903;DHT22;20194;50.950;5.346;2024-01-30T09:34:59;11.30;95.90
33903;DHT22;20194;50.950;5.346;2024-01-30T09:37:25;11.30;95.90
33903;DHT22;20194;50.950;5.346;2024-01-30T09:39:51;11.40;96.00
33903;DHT22;20194;50.950;5.346;2024-01-30T09:42:36;11.40;95.60
33903;DHT22;20194;50.950;5.346;2024-01-30T09:45:05;11.40;95.70
33903;DHT22;20194;50.950;5.346;2024-01-30T09:47:41;11.40;96.00
33903;DHT22;20194;50.950;5.346;2024-01-30T09:50:09;11.50;95.80
33903;DHT22;20194;50.950;5.346;2024-01-30T09:52:35;11.50;95.80
33903;DHT22;20194;50.950;5.346;2024-01-30T09:55:02;11.60;95.60
33903;DHT22;20194;50.950;5.346;2024-01-30T09:57:28;11.60;95.50
33903;DHT22;20194;50.950;5.346;2024-01-30T09:59:54;11.60;95.50
33903;DHT22;20194;50.950;5.346;2024-01-30T10:02:20;11.80;95.30
33903;DHT22;20194;50.950;5.346;2024-01-30T10:04:50;11.80;95.20
33903;DHT22;20194;50.950;5.346;2024-01-30T10:07:16;11.80;95.00
33903;DHT22;20194;50.950;5.346;2024-01-30T10:09:42;11.90;95.20
33903;DHT22;20194;50.950;5.346;2024-01-30T10:12:09;11.80;95.20
33903;DHT22;20194;50.950;5.346;2024-01-30T10:14:41;11.90;95.50
33903;DHT22;20194;50.950;5.346;2024-01-30T10:17:11;11.90;95.40
33903;DHT22;20194;50.950;5.346;2024-01-30T10:19:41;12.00;95.20
33903;DHT22;20194;50.950;5.346;2024-01-30T10:22:07;12.00;95.20
33903;DHT22;20194;50.950;5.346;2024-01-30T10:24:34;12.10;95.40
33903;DHT22;20194;50.950;5.346;2024-01-30T10:26:59;12.10;95.00
33903;DHT22;20194;50.950;5.346;2024-01-30T10:29:26;12.10;95.20
33903;DHT22;20194;50.950;5.346;2024-01-30T10:32:02;12.10;95.30
33903;DHT22;20194;50.950;5.346;2024-01-30T10:34:28;12.00;95.40
33903;DHT22;20194;50.950;5.346;2024-01-30T10:37:07;12.10;95.60
33903;DHT22;20194;50.950;5.346;2024-01-30T10:39:45;12.10;95.80
33903;DHT22;20194;50.950;5.346;2024-01-30T10:42:20;12.00;96.00
33903;DHT22;20194;50.950;5.346;2024-01-30T10:45:06;12.00;96.20
33903;DHT22;20194;50.950;5.346;2024-01-30T10:47:34;12.10;96.20
33903;DHT22;20194;50.950;5.346;2024-01-30T10:50:03;12.10;96.50
33903;DHT22;20194;50.950;5.346;2024-01-30T10:52:29;12.10;96.40
33903;DHT22;20194;50.950;5.346;2024-01-30T10:54:57;12.10;96.40
33903;DHT22;20194;50.950;5.346;2024-01-30T10:57:24;12.10;96.30
33903;DHT22;20194;50.950;5.346;2024-01-30T10:59:52;12.10;96.60
33903;DHT22;20194;50.950;5.346;2024-01-30T11:02:19;12.10;96.70
33903;DHT22;20194;50.950;5.346;2024-01-30T11:04:45;12.00;96.90
33903;DHT22;20194;50.950;5.346;2024-01-30T11:07:18;12.00;97.00
33903;DHT22;20194;50.950;5.346;2024-01-30T11:09:59;12.00;97.10
33903;DHT22;20194;50.950;5.346;2024-01-30T11:12:32;12.10;97.30
33903;DHT22;20194;50.950;5.346;2024-01-30T11:15:10;12.10;97.20
33903;DHT22;20194;50.950;5.346;2024-01-30T11:20:14;12.00;97.40
33903;DHT22;20194;50.950;5.346;2024-01-30T11:22:45;12.00;97.40
33903;DHT22;20194;50.950;5.346;2024-01-30T11:25:15;11.90;97.60
33903;DHT22;20194;50.950;5.346;2024-01-30T11:27:42;12.00;97.60
33903;DHT22;20194;50.950;5.346;2024-01-30T11:30:08;11.90;97.60
33903;DHT22;20194;50.950;5.346;2024-01-30T11:32:34;11.90;97.80
33903;DHT22;20194;50.950;5.346;2024-01-30T11:35:02;11.90;98.00
33903;DHT22;20194;50.950;5.346;2024-01-30T11:37:28;11.90;98.00
33903;DHT22;20194;50.950;5.346;2024-01-30T11:39:56;11.90;97.90
33903;DHT22;20194;50.950;5.346;2024-01-30T11:42:23;12.00;98.00
33903;DHT22;20194;50.950;5.346;2024-01-30T11:44:50;11.90;98.20
33903;DHT22;20194;50.950;5.346;2024-01-30T11:47:16;11.90;98.60
33903;DHT22;20194;50.950;5.346;2024-01-30T11:49:43;11.90;98.70
33903;DHT22;20194;50.950;5.346;2024-01-30T11:52:09;11.90;98.80
33903;DHT22;20194;50.950;5.346;2024-01-30T11:54:35;11.90;98.80
33903;DHT22;20194;50.950;5.346;2024-01-30T11:57:01;11.90;98.70
33903;DHT22;20194;50.950;5.346;2024-01-30T11:59:27;11.90;98.70
33903;DHT22;20194;50.950;5.346;2024-01-30T12:01:52;12.10;98.40
33903;DHT22;20194;50.950;5.346;2024-01-30T12:04:18;12.10;97.90
33903;DHT22;20194;50.950;5.346;2024-01-30T12:06:44;12.20;97.70
33903;DHT22;20194;50.950;5.346;2024-01-30T12:09:09;12.20;97.90
33903;DHT22;20194;50.950;5.346;2024-01-30T12:11:47;12.10;97.90
33903;DHT22;20194;50.950;5.346;2024-01-30T12:14:14;12.10;98.10
33903;DHT22;20194;50.950;5.346;2024-01-30T12:16:41;12.10;98.10
33903;DHT22;20194;50.950;5.346;2024-01-30T12:19:09;12.10;98.10
33903;DHT22;20194;50.950;5.346;2024-01-30T12:21:35;12.10;98.20
33903;DHT22;20194;50.950;5.346;2024-01-30T12:24:01;12.00;98.00
33903;DHT22;20194;50.950;5.346;2024-01-30T12:26:27;12.00;98.30
33903;DHT22;20194;50.950;5.346;2024-01-30T12:28:56;12.00;98.10
33903;DHT22;20194;50.950;5.346;2024-01-30T12:31:27;12.00;98.10
33903;DHT22;20194;50.950;5.346;2024-01-30T12:33:53;12.00;98.10
33903;DHT22;20194;50.950;5.346;2024-01-30T12:36:19;12.00;98.00
33903;DHT22;20194;50.950;5.346;2024-01-30T12:38:46;12.00;98.10
33903;DHT22;20194;50.950;5.346;2024-01-30T12:41:11;11.90;98.20
33903;DHT22;20194;50.950;5.346;2024-01-30T12:43:37;11.80;96.60
33903;DHT22;20194;50.950;5.346;2024-01-30T12:46:03;11.80;96.70
33903;DHT22;20194;50.950;5.346;2024-01-30T12:48:29;11.70;94.80
33903;DHT22;20194;50.950;5.346;2024-01-30T12:50:56;11.70;94.30
33903;DHT22;20194;50.950;5.346;2024-01-30T12:53:21;11.70;94.40
33903;DHT22;20194;50.950;5.346;2024-01-30T12:55:48;11.70;93.30
33903;DHT22;20194;50.950;5.346;2024-01-30T12:58:15;11.70;92.90
33903;DHT22;20194;50.950;5.346;2024-01-30T13:00:41;11.70;92.60
33903;DHT22;20194;50.950;5.346;2024-01-30T13:03:09;11.70;91.60
33903;DHT22;20194;50.950;5.346;2024-01-30T13:05:35;11.80;91.70
33903;DHT22;20194;50.950;5.346;2024-01-30T13:08:01;11.80;90.70
33903;DHT22;20194;50.950;5.346;2024-01-30T13:10:27;11.80;89.60
33903;DHT22;20194;50.950;5.346;2024-01-30T13:12:53;11.80;88.20
33903;DHT22;20194;50.950;5.346;2024-01-30T13:15:18;11.80;86.60
33903;DHT22;20194;50.950;5.346;2024-01-30T13:17:44;11.90;87.20
33903;DHT22;20194;50.950;5.346;2024-01-30T13:20:13;11.90;87.10
33903;DHT22;20194;50.950;5.346;2024-01-30T13:22:43;11.90;85.50
33903;DHT22;20194;50.950;5.346;2024-01-30T13:25:09;11.90;82.60
33903;DHT22;20194;50.950;5.346;2024-01-30T13:27:35;11.80;81.80
33903;DHT22;20194;50.950;5.346;2024-01-30T13:30:01;11.80;83.80
33903;DHT22;20194;50.950;5.346;2024-01-30T13:32:26;11.80;83.50
33903;DHT22;20194;50.950;5.346;2024-01-30T13:34:52;11.80;79.90
33903;DHT22;20194;50.950;5.346;2024-01-30T13:37:18;11.80;81.30
33903;DHT22;20194;50.950;5.346;2024-01-30T13:39:44;11.80;78.70
33903;DHT22;20194;50.950;5.346;2024-01-30T13:42:09;11.80;74.50
33903;DHT22;20194;50.950;5.346;2024-01-30T13:44:36;11.80;74.30
33903;DHT22;20194;50.950;5.346;2024-01-30T13:47:01;11.70;71.30
33903;DHT22;20194;50.950;5.346;2024-01-30T13:49:27;11.70;71.70
33903;DHT22;20194;50.950;5.346;2024-01-30T13:51:53;11.70;70.50
33903;DHT22;20194;50.950;5.346;2024-01-30T13:54:18;11.60;66.80
33903;DHT22;20194;50.950;5.346;2024-01-30T13:56:44;11.40;66.90
33903;DHT22;20194;50.950;5.346;2024-01-30T13:59:10;11.50;66.80
33903;DHT22;20194;50.950;5.346;2024-01-30T14:01:36;11.60;65.70
33903;DHT22;20194;50.950;5.346;2024-01-30T14:04:01;11.60;63.80
33903;DHT22;20194;50.950;5.346;2024-01-30T14:06:27;11.70;63.80
33903;DHT22;20194;50.950;5.346;2024-01-30T14:08:53;11.70;64.50
33903;DHT22;20194;50.950;5.346;2024-01-30T14:11:19;11.70;61.70
33903;DHT22;20194;50.950;5.346;2024-01-30T14:13:45;11.80;62.60
33903;DHT22;20194;50.950;5.346;2024-01-30T14:16:10;11.70;62.00
33903;DHT22;20194;50.950;5.346;2024-01-30T14:18:36;11.70;61.80
33903;DHT22;20194;50.950;5.346;2024-01-30T14:21:02;11.60;63.90
33903;DHT22;20194;50.950;5.346;2024-01-30T14:23:28;11.70;64.70
33903;DHT22;20194;50.950;5.346;2024-01-30T14:25:53;11.70;63.10
33903;DHT22;20194;50.950;5.346;2024-01-30T14:28:19;11.70;61.40
33903;DHT22;20194;50.950;5.346;2024-01-30T14:30:45;11.70;62.10
33903;DHT22;20194;50.950;5.346;2024-01-30T14:33:10;11.80;63.20
33903;DHT22;20194;50.950;5.346;2024-01-30T14:35:37;11.70;60.40
33903;DHT22;20194;50.950;5.346;2024-01-30T14:38:02;11.60;64.10
33903;DHT22;20194;50.950;5.346;2024-01-30T14:40:30;11.60;63.90
33903;DHT22;20194;50.950;5.346;2024-01-30T14:42:56;11.60;62.40
33903;DHT22;20194;50.950;5.346;2024-01-30T14:45:21;11.50;62.10
33903;DHT22;20194;50.950;5.346;2024-01-30T14:47:47;11.50;60.40
33903;DHT22;20194;50.950;5.346;2024-01-30T14:50:13;11.50;58.00
33903;DHT22;20194;50.950;5.346;2024-01-30T14:52:39;11.50;54.20
33903;DHT22;20194;50.950;5.346;2024-01-30T14:55:06;11.40;55.20
33903;DHT22;20194;50.950;5.346;2024-01-30T14:57:32;11.40;56.50
33903;DHT22;20194;50.950;5.346;2024-01-30T15:00:00;11.40;55.60
33903;DHT22;20194;50.950;5.346;2024-01-30T15:02:26;11.40;57.10
33903;DHT22;20194;50.950;5.346;2024-01-30T15:04:51;11.30;55.90
33903;DHT22;20194;50.950;5.346;2024-01-30T15:07:17;11.30;57.30
33903;DHT22;20194;50.950;5.346;2024-01-30T15:09:43;11.30;57.30
33903;DHT22;20194;50.950;5.346;2024-01-30T15:12:08;11.30;57.70
33903;DHT22;20194;50.950;5.346;2024-01-30T15:14:34;11.30;58.40
33903;DHT22;20194;50.950;5.346;2024-01-30T15:17:00;11.20;55.80
33903;DHT22;20194;50.950;5.346;2024-01-30T15:19:26;11.20;57.50
33903;DHT22;20194;50.950;5.346;2024-01-30T15:21:52;11.10;56.70
33903;DHT22;20194;50.950;5.346;2024-01-30T15:24:17;11.10;56.30
33903;DHT22;20194;50.950;5.346;2024-01-30T15:26:45;11.00;55.90
33903;DHT22;20194;50.950;5.346;2024-01-30T15:29:11;11.00;56.60
33903;DHT22;20194;50.950;5.346;2024-01-30T15:31:37;11.00;54.70